TimeCDT,TemperatureF,Dew PointF,Humidity,Sea Level PressureIn,VisibilityMPH,Wind Direction,Wind SpeedMPH,Gust SpeedMPH,PrecipitationIn,Events,Conditions,WindDirDegrees,DateUTC
12:51 AM,55.9,50.0,80,29.88,10.0,West,9.2,-,N/A,,Overcast,270,2013-10-06 05:51:00
1:51 AM,55.0,48.9,80,29.88,10.0,WSW,6.9,-,N/A,,Mostly Cloudy,250,2013-10-06 06:51:00
2:51 AM,54.0,48.9,83,29.88,10.0,WSW,4.6,-,N/A,,Mostly Cloudy,240,2013-10-06 07:51:00
3:51 AM,54.0,48.0,80,29.86,10.0,SSW,3.5,-,N/A,,Mostly Cloudy,200,2013-10-06 08:51:00
4:51 AM,53.1,48.0,83,29.86,10.0,SW,4.6,-,N/A,,Mostly Cloudy,220,2013-10-06 09:51:00
5:51 AM,52.0,46.9,83,29.87,10.0,SW,5.8,-,N/A,,Partly Cloudy,230,2013-10-06 10:51:00
6:51 AM,51.1,46.0,83,29.88,10.0,SSW,6.9,-,N/A,,Partly Cloudy,210,2013-10-06 11:51:00
7:51 AM,51.1,46.0,83,29.86,10.0,SW,8.1,-,N/A,,Partly Cloudy,220,2013-10-06 12:51:00
8:51 AM,53.1,44.1,71,29.87,10.0,WSW,12.7,-,N/A,,Scattered Clouds,250,2013-10-06 13:51:00
9:51 AM,54.0,39.9,59,29.88,10.0,WSW,17.3,25.3,N/A,,Partly Cloudy,250,2013-10-06 14:51:00
10:51 AM,55.0,39.0,55,29.88,10.0,WSW,19.6,28.8,N/A,,Scattered Clouds,250,2013-10-06 15:51:00
11:51 AM,54.0,37.9,55,29.89,10.0,West,17.3,-,N/A,,Mostly Cloudy,260,2013-10-06 16:51:00
12:51 PM,55.9,37.9,51,29.87,10.0,WSW,18.4,24.2,N/A,,Mostly Cloudy,240,2013-10-06 17:51:00
1:51 PM,57.0,39.0,51,29.86,10.0,West,15.0,24.2,N/A,,Mostly Cloudy,260,2013-10-06 18:51:00
2:51 PM,57.0,37.9,49,29.87,10.0,West,21.9,-,N/A,,Mostly Cloudy,270,2013-10-06 19:51:00
3:51 PM,57.9,36.0,44,29.86,10.0,West,23.0,33.4,N/A,,Mostly Cloudy,270,2013-10-06 20:51:00
4:51 PM,57.9,37.9,47,29.88,10.0,West,18.4,28.8,N/A,,Mostly Cloudy,270,2013-10-06 21:51:00
5:51 PM,55.9,37.9,51,29.89,10.0,West,16.1,24.2,N/A,,Mostly Cloudy,270,2013-10-06 22:51:00
6:51 PM,55.9,39.0,53,29.90,10.0,West,9.2,-,N/A,,Mostly Cloudy,260,2013-10-06 23:51:00
7:51 PM,55.9,39.9,55,29.90,10.0,WSW,8.1,-,N/A,,Mostly Cloudy,250,2013-10-07 00:51:00
8:51 PM,55.9,39.9,55,29.89,10.0,SW,11.5,-,N/A,,Mostly Cloudy,230,2013-10-07 01:51:00
9:51 PM,55.0,41.0,59,29.90,10.0,WSW,9.2,-,N/A,,Overcast,250,2013-10-07 02:51:00
10:51 PM,52.0,48.0,86,29.92,6.0,West,10.4,-,0.00,Rain,Light Rain,270,2013-10-07 03:51:00
11:51 PM,52.0,48.0,86,29.91,10.0,West,11.5,-,0.01,,Mostly Cloudy,260,2013-10-07 04:51:00